createdAt,value
2018-07-14T00:02:51.690Z,55.10
2018-07-14T00:05:19.248Z,55.10
2018-07-14T00:07:46.793Z,55.20
2018-07-14T00:10:14.338Z,55.10
2018-07-14T00:12:41.868Z,55.10
2018-07-14T00:15:09.376Z,55.20
2018-07-14T00:17:36.924Z,55.10
2018-07-14T00:20:04.567Z,55.10
2018-07-14T00:22:32.118Z,55.10
2018-07-14T00:24:59.689Z,55.20
2018-07-14T00:27:27.310Z,55.10
2018-07-14T00:29:54.805Z,55.10
2018-07-14T00:32:22.376Z,55.10
2018-07-14T00:34:50.123Z,55.10
2018-07-14T00:37:17.714Z,55.10
2018-07-14T00:42:12.549Z,55.10
2018-07-14T00:44:40.080Z,55.00
2018-07-14T00:47:07.599Z,55.00
2018-07-14T00:49:35.198Z,55.00
2018-07-14T00:52:02.696Z,55.00
2018-07-14T00:54:30.244Z,55.00
2018-07-14T00:56:57.798Z,55.00
2018-07-14T00:59:25.436Z,54.90
2018-07-14T01:01:53.091Z,55.00
2018-07-14T01:04:20.679Z,55.00
2018-07-14T01:06:48.224Z,55.10
2018-07-14T01:09:15.922Z,55.10
2018-07-14T01:11:43.427Z,55.10
2018-07-14T01:14:11.010Z,55.00
2018-07-14T01:16:38.541Z,55.00
2018-07-14T01:19:06.146Z,55.00
2018-07-14T01:21:33.928Z,55.00
2018-07-14T01:24:01.477Z,55.10
2018-07-14T01:26:29.212Z,54.90
2018-07-14T01:28:56.776Z,55.00
2018-07-14T01:31:24.323Z,55.00
2018-07-14T01:33:51.842Z,54.90
2018-07-14T01:36:19.417Z,54.90
2018-07-14T01:38:46.997Z,54.90
2018-07-14T01:41:14.535Z,55.00
2018-07-14T01:43:42.344Z,54.90
2018-07-14T01:46:09.910Z,55.30
2018-07-14T01:48:37.479Z,54.90
2018-07-14T01:51:05.032Z,54.80
2018-07-14T01:53:32.657Z,54.90
2018-07-14T01:56:00.264Z,54.90
2018-07-14T01:58:27.805Z,54.90
2018-07-14T02:00:55.365Z,54.90
2018-07-14T02:03:22.920Z,54.90
2018-07-14T02:05:50.428Z,54.80
2018-07-14T02:08:17.976Z,54.60
2018-07-14T02:10:45.483Z,54.90
2018-07-14T02:13:13.012Z,54.80
2018-07-14T02:15:40.564Z,54.90
2018-07-14T02:18:08.100Z,54.80
2018-07-14T02:20:35.653Z,54.80
2018-07-14T02:23:03.239Z,54.80
2018-07-14T02:25:30.789Z,54.80
2018-07-14T02:27:58.343Z,54.90
2018-07-14T02:30:25.878Z,54.80
2018-07-14T02:32:53.440Z,55.20
2018-07-14T02:37:48.284Z,54.80
2018-07-14T02:40:15.908Z,54.80
2018-07-14T02:42:43.422Z,54.70
2018-07-14T02:45:10.949Z,54.80
2018-07-14T02:47:38.836Z,54.80
2018-07-14T02:52:33.622Z,54.80
2018-07-14T02:55:01.163Z,54.80
2018-07-14T02:57:28.703Z,54.80
2018-07-14T02:59:56.332Z,54.80
2018-07-14T03:02:23.854Z,54.80
2018-07-14T03:04:51.374Z,54.80
2018-07-14T03:07:18.887Z,54.80
2018-07-14T03:09:46.449Z,54.60
2018-07-14T03:12:14.184Z,54.80
2018-07-14T03:14:41.761Z,54.70
2018-07-14T03:17:09.301Z,54.70
2018-07-14T03:19:37.136Z,54.80
2018-07-14T03:22:04.726Z,54.80
2018-07-14T03:24:32.350Z,54.20
2018-07-14T03:26:59.913Z,54.60
2018-07-14T03:29:27.465Z,54.60
2018-07-14T03:31:55.006Z,54.80
2018-07-14T03:34:22.547Z,54.60
2018-07-14T03:36:50.154Z,54.60
2018-07-14T03:39:17.707Z,54.60
2018-07-14T03:41:45.253Z,54.60
2018-07-14T03:44:12.814Z,54.60
2018-07-14T03:46:40.361Z,54.60
2018-07-14T03:49:07.864Z,54.60
2018-07-14T03:51:35.628Z,54.50
2018-07-14T03:54:03.285Z,54.60
2018-07-14T03:56:30.931Z,54.50
2018-07-14T03:58:58.530Z,54.60
2018-07-14T04:01:26.082Z,54.50
2018-07-14T04:03:53.612Z,55.20
2018-07-14T04:06:21.215Z,54.50
2018-07-14T04:08:48.734Z,54.60
2018-07-14T04:11:16.289Z,54.50
2018-07-14T04:13:43.840Z,54.50
2018-07-14T04:16:11.427Z,54.50
2018-07-14T04:18:38.942Z,54.50
2018-07-14T04:21:06.678Z,54.50
2018-07-14T04:23:34.245Z,54.50
2018-07-14T04:26:01.788Z,54.50
2018-07-14T04:28:29.411Z,54.50
2018-07-14T04:30:56.918Z,54.50
2018-07-14T04:33:24.500Z,54.50
2018-07-14T04:35:52.165Z,54.50
2018-07-14T04:38:19.717Z,54.50
2018-07-14T04:40:47.278Z,54.50
2018-07-14T04:43:14.817Z,54.40
2018-07-14T04:45:42.366Z,54.40
2018-07-14T04:48:09.961Z,54.40
2018-07-14T04:50:37.581Z,54.30
2018-07-14T04:53:05.138Z,54.30
2018-07-14T04:55:32.642Z,54.30
2018-07-14T04:58:00.184Z,54.30
2018-07-14T05:00:27.730Z,54.30
2018-07-14T05:02:55.301Z,54.20
2018-07-14T05:05:22.810Z,54.20
2018-07-14T05:07:50.332Z,54.20
2018-07-14T05:10:17.997Z,54.20
2018-07-14T05:12:45.540Z,54.30
2018-07-14T05:15:13.086Z,54.30
2018-07-14T05:17:40.631Z,54.20
2018-07-14T05:20:08.196Z,54.30
2018-07-14T05:22:35.721Z,54.30
2018-07-14T05:25:03.270Z,54.30
2018-07-14T05:27:30.829Z,54.30
2018-07-14T05:29:58.415Z,54.40
2018-07-14T05:32:26.057Z,54.30
2018-07-14T05:34:53.649Z,54.40
2018-07-14T05:37:21.291Z,54.30
2018-07-14T05:39:48.805Z,54.30
2018-07-14T05:42:16.399Z,54.30
2018-07-14T05:44:43.947Z,54.30
2018-07-14T05:47:11.981Z,55.00
2018-07-14T05:49:39.567Z,54.30
2018-07-14T05:52:07.152Z,54.20
2018-07-14T05:54:34.927Z,54.20
2018-07-14T05:57:03.110Z,54.30
2018-07-14T05:59:30.698Z,54.20
2018-07-14T06:01:58.224Z,54.30
2018-07-14T06:04:25.754Z,54.40
2018-07-14T06:06:53.389Z,54.30
2018-07-14T06:09:20.891Z,54.40
2018-07-14T06:11:48.713Z,54.50
2018-07-14T06:14:16.272Z,54.40
2018-07-14T06:16:43.926Z,54.10
2018-07-14T06:19:11.455Z,54.10
2018-07-14T06:21:38.971Z,54.10
2018-07-14T06:24:06.490Z,54.00
2018-07-14T06:26:34.376Z,53.90
2018-07-14T06:31:29.178Z,53.60
2018-07-14T06:33:56.794Z,53.60
2018-07-14T06:36:24.459Z,53.30
2018-07-14T06:38:52.018Z,52.50
2018-07-14T06:41:19.576Z,52.60
2018-07-14T06:43:47.190Z,52.50
2018-07-14T06:46:14.882Z,52.40
2018-07-14T06:48:42.446Z,52.80
2018-07-14T06:51:10.049Z,52.50
2018-07-14T06:53:37.793Z,52.30
2018-07-14T06:56:05.310Z,52.30
2018-07-14T06:58:32.933Z,52.30
2018-07-14T07:01:00.447Z,52.90
2018-07-14T07:03:28.269Z,52.50
2018-07-14T07:05:55.933Z,52.50
2018-07-14T07:08:23.547Z,52.20
2018-07-14T07:13:18.355Z,52.10
2018-07-14T07:15:46.075Z,52.10
2018-07-14T07:18:13.777Z,52.00
2018-07-14T07:20:41.433Z,51.80
2018-07-14T07:23:09.348Z,51.80
2018-07-14T07:25:37.113Z,51.70
2018-07-14T07:28:06.056Z,51.70
2018-07-14T07:30:34.060Z,51.50
2018-07-14T07:33:01.749Z,51.50
2018-07-14T07:35:29.537Z,51.50
2018-07-14T07:37:57.331Z,51.30
2018-07-14T07:40:25.393Z,51.30
2018-07-14T07:42:53.114Z,51.20
2018-07-14T07:45:20.903Z,51.40
2018-07-14T07:47:48.495Z,50.80
2018-07-14T07:50:16.390Z,50.70
2018-07-14T07:52:43.980Z,50.70
2018-07-14T07:57:39.878Z,51.40
2018-07-14T08:00:08.270Z,50.60
2018-07-14T08:02:37.169Z,50.60
2018-07-14T08:05:05.527Z,50.70
2018-07-14T08:07:33.981Z,50.80
2018-07-14T08:10:02.265Z,50.60
2018-07-14T08:12:31.649Z,50.70
2018-07-14T08:15:00.222Z,50.90
2018-07-14T08:17:28.605Z,50.60
2018-07-14T08:19:57.878Z,50.70
2018-07-14T08:22:26.145Z,50.60
2018-07-14T08:24:55.485Z,50.40
2018-07-14T08:27:23.986Z,50.80
2018-07-14T08:29:52.699Z,50.10
2018-07-14T08:32:22.029Z,50.00
2018-07-14T08:34:50.481Z,50.00
2018-07-14T08:37:19.886Z,50.00
2018-07-14T08:39:49.083Z,50.00
2018-07-14T08:42:17.445Z,50.00
2018-07-14T08:44:45.939Z,50.00
2018-07-14T08:47:14.636Z,49.80
2018-07-14T08:49:43.520Z,49.90
2018-07-14T08:52:12.020Z,49.90
2018-07-14T08:54:40.333Z,49.80
2018-07-14T08:57:09.034Z,49.70
2018-07-14T08:59:37.243Z,49.60
2018-07-14T09:02:06.125Z,49.70
2018-07-14T09:04:34.667Z,49.60
2018-07-14T09:07:03.169Z,49.70
2018-07-14T09:09:31.575Z,49.60
2018-07-14T09:11:59.712Z,49.60
2018-07-14T09:14:27.413Z,49.60
2018-07-14T09:16:54.928Z,49.40
2018-07-14T09:19:22.562Z,49.50
2018-07-14T09:21:50.117Z,49.40
2018-07-14T09:24:17.669Z,49.40
2018-07-14T09:26:45.259Z,49.30
2018-07-14T09:29:12.909Z,49.30
2018-07-14T09:31:40.476Z,49.40
2018-07-14T09:34:09.166Z,49.30
2018-07-14T09:36:36.792Z,49.20
2018-07-14T09:39:05.300Z,49.10
2018-07-14T09:41:32.828Z,49.10
2018-07-14T09:44:00.793Z,49.30
2018-07-14T09:46:28.564Z,49.20
2018-07-14T09:48:56.405Z,49.10
2018-07-14T09:51:24.020Z,49.00
2018-07-14T09:53:51.535Z,48.80
2018-07-14T09:56:19.484Z,49.10
2018-07-14T09:58:47.585Z,49.40
2018-07-14T10:01:15.182Z,49.10
2018-07-14T10:03:42.780Z,49.00
2018-07-14T10:06:10.395Z,49.10
2018-07-14T10:08:37.995Z,49.00
2018-07-14T10:11:05.817Z,48.90
2018-07-14T10:13:33.400Z,49.00
2018-07-14T10:16:01.181Z,49.60
2018-07-14T10:18:28.718Z,49.10
2018-07-14T10:20:56.570Z,49.00
2018-07-14T10:23:24.187Z,48.90
2018-07-14T10:25:52.017Z,48.80
2018-07-14T10:30:46.792Z,48.90
2018-07-14T10:33:14.578Z,48.80
2018-07-14T10:35:42.552Z,48.50
2018-07-14T10:38:10.188Z,48.70
2018-07-14T10:40:38.125Z,48.70
2018-07-14T10:43:06.154Z,48.80
2018-07-14T10:45:33.900Z,48.90
2018-07-14T10:48:02.238Z,49.60
2018-07-14T10:50:30.823Z,48.60
2018-07-14T10:52:58.485Z,48.60
2018-07-14T10:55:26.411Z,48.70
2018-07-14T10:57:54.961Z,48.70
2018-07-14T11:00:22.733Z,48.70
2018-07-14T11:02:50.311Z,48.80
2018-07-14T11:05:17.817Z,48.60
2018-07-14T11:07:45.360Z,48.90
2018-07-14T11:10:12.894Z,48.60
2018-07-14T11:15:07.757Z,48.60
2018-07-14T11:17:35.311Z,48.60
2018-07-14T11:20:02.849Z,48.60
2018-07-14T11:22:30.362Z,48.60
2018-07-14T11:24:57.891Z,48.60
2018-07-14T11:27:25.384Z,48.50
2018-07-14T11:29:53.076Z,48.50
2018-07-14T11:32:20.919Z,48.50
2018-07-14T11:34:48.439Z,48.30
2018-07-14T11:37:15.992Z,48.30
2018-07-14T11:39:43.643Z,48.40
2018-07-14T11:42:11.219Z,48.30
2018-07-14T11:44:38.693Z,48.50
2018-07-14T11:49:33.557Z,48.20
2018-07-14T11:52:01.513Z,48.50
2018-07-14T11:54:29.388Z,48.50
2018-07-14T11:56:56.954Z,48.50
2018-07-14T11:59:24.755Z,48.50
2018-07-14T12:01:52.329Z,48.50
2018-07-14T12:04:20.068Z,48.60
2018-07-14T12:06:47.619Z,48.90
2018-07-14T12:09:15.349Z,49.00
2018-07-14T12:14:10.514Z,49.20
2018-07-14T12:19:05.766Z,49.00
2018-07-14T12:21:33.284Z,49.00
2018-07-14T12:24:00.970Z,49.00
2018-07-14T12:26:28.525Z,48.90
2018-07-14T12:28:56.087Z,48.80
2018-07-14T12:31:23.615Z,48.90
2018-07-14T12:33:51.175Z,48.80
2018-07-14T12:36:18.717Z,48.90
2018-07-14T12:38:46.252Z,48.80
2018-07-14T12:41:13.922Z,48.70
2018-07-14T12:43:41.475Z,48.70
2018-07-14T12:46:09.092Z,48.60
2018-07-14T12:48:36.636Z,48.60
2018-07-14T12:51:04.223Z,48.50
2018-07-14T12:53:31.765Z,48.60
2018-07-14T12:55:59.502Z,48.60
2018-07-14T12:58:27.044Z,48.50
2018-07-14T13:00:54.550Z,48.50
2018-07-14T13:05:49.555Z,48.60
2018-07-14T13:08:17.108Z,48.50
2018-07-14T13:10:44.655Z,48.40
2018-07-14T13:13:12.177Z,48.30
2018-07-14T13:15:39.750Z,48.40
2018-07-14T13:18:07.285Z,48.30
2018-07-14T13:20:34.825Z,48.20
2018-07-14T13:25:29.632Z,48.20
2018-07-14T13:27:57.159Z,48.20
2018-07-14T13:30:24.702Z,48.20
2018-07-14T13:32:52.220Z,48.20
2018-07-14T13:35:19.770Z,48.00
2018-07-14T13:37:47.337Z,48.60
2018-07-14T13:40:15.004Z,48.10
2018-07-14T13:42:42.526Z,48.00
2018-07-14T13:45:13.290Z,48.00
2018-07-14T13:47:40.919Z,48.00
2018-07-14T13:52:35.751Z,48.00
2018-07-14T13:55:03.431Z,47.90
2018-07-14T13:57:30.949Z,47.90
2018-07-14T13:59:58.560Z,47.90
2018-07-14T14:02:26.664Z,47.90
2018-07-14T14:04:54.335Z,47.80
2018-07-14T14:07:22.107Z,47.80
2018-07-14T14:09:49.844Z,47.80
2018-07-14T14:12:17.377Z,47.80
2018-07-14T14:14:44.905Z,47.80
2018-07-14T14:17:12.433Z,47.70
2018-07-14T14:19:39.983Z,47.70
2018-07-14T14:22:07.507Z,47.70
2018-07-14T14:24:35.133Z,47.60
2018-07-14T14:27:02.750Z,47.60
2018-07-14T14:29:30.376Z,47.60
2018-07-14T14:31:57.913Z,47.50
2018-07-14T14:34:25.583Z,47.50
2018-07-14T14:36:53.150Z,47.60
2018-07-14T14:39:20.731Z,47.80
2018-07-14T14:41:48.279Z,47.70
2018-07-14T14:44:15.805Z,47.70
2018-07-14T14:46:43.337Z,47.60
2018-07-14T14:49:10.849Z,47.70
2018-07-14T14:51:38.400Z,47.70
2018-07-14T14:54:05.908Z,47.70
2018-07-14T14:56:33.447Z,47.80
2018-07-14T14:59:00.948Z,47.70
2018-07-14T15:01:28.556Z,47.70
2018-07-14T15:03:56.090Z,47.70
2018-07-14T15:06:23.710Z,47.70
2018-07-14T15:08:51.259Z,47.70
2018-07-14T15:11:18.776Z,47.70
2018-07-14T15:13:46.309Z,47.80
2018-07-14T15:16:13.886Z,47.80
2018-07-14T15:18:41.448Z,47.80
2018-07-14T15:21:08.959Z,47.80
2018-07-14T15:23:36.475Z,47.90
2018-07-14T15:26:04.000Z,47.80
2018-07-14T15:28:31.541Z,47.80
2018-07-14T15:30:59.223Z,47.80
2018-07-14T15:33:26.860Z,47.80
2018-07-14T15:35:54.350Z,47.80
2018-07-14T15:38:21.892Z,48.50
2018-07-14T15:40:49.417Z,47.80
2018-07-14T15:43:17.002Z,47.80
2018-07-14T15:45:44.552Z,47.80
2018-07-14T15:48:12.089Z,47.70
2018-07-14T15:53:06.863Z,47.70
2018-07-14T15:55:34.413Z,47.70
2018-07-14T15:58:01.936Z,47.60
2018-07-14T16:00:29.475Z,47.60
2018-07-14T16:02:57.077Z,47.60
2018-07-14T16:05:24.904Z,47.50
2018-07-14T16:07:52.441Z,47.50
2018-07-14T16:10:20.155Z,47.50
2018-07-14T16:12:47.733Z,47.50
2018-07-14T16:15:15.261Z,47.50
2018-07-14T16:17:42.991Z,47.50
2018-07-14T16:20:10.500Z,47.50
2018-07-14T16:22:38.096Z,47.50
2018-07-14T16:25:05.619Z,47.50
2018-07-14T16:27:33.137Z,47.50
2018-07-14T16:30:00.800Z,47.60
2018-07-14T16:32:28.327Z,47.60
2018-07-14T16:34:55.828Z,47.50
2018-07-14T16:39:50.684Z,47.70
2018-07-14T16:42:18.373Z,47.90
2018-07-14T16:44:45.934Z,47.60
2018-07-14T16:47:13.508Z,47.60
2018-07-14T16:49:41.019Z,47.60
2018-07-14T16:52:08.517Z,47.60
2018-07-14T16:54:36.333Z,47.80
2018-07-14T16:57:03.937Z,47.70
2018-07-14T16:59:31.443Z,47.60
2018-07-14T17:01:59.053Z,47.70
2018-07-14T17:04:26.923Z,47.60
2018-07-14T17:06:54.444Z,47.60
2018-07-14T17:09:22.141Z,47.60
2018-07-14T17:11:50.209Z,47.50
2018-07-14T17:14:18.510Z,47.60
2018-07-14T17:16:46.058Z,47.50
2018-07-14T17:19:13.689Z,47.50
2018-07-14T17:21:41.243Z,47.50
2018-07-14T17:24:08.820Z,47.40
2018-07-14T17:26:36.339Z,47.40
2018-07-14T17:29:03.847Z,47.40
2018-07-14T17:31:31.388Z,47.50
2018-07-14T17:33:59.042Z,47.40
2018-07-14T17:36:26.625Z,47.40
2018-07-14T17:38:54.147Z,47.40
2018-07-14T17:41:21.722Z,47.50
2018-07-14T17:43:49.342Z,47.50
2018-07-14T17:46:16.889Z,47.50
2018-07-14T17:48:44.839Z,47.40
2018-07-14T17:51:12.389Z,47.40
2018-07-14T17:53:40.038Z,47.50
2018-07-14T17:56:07.550Z,47.60
2018-07-14T17:58:35.082Z,47.50
2018-07-14T18:01:02.599Z,47.80
2018-07-14T18:03:30.208Z,47.80
2018-07-14T18:05:57.833Z,48.40
2018-07-14T18:08:25.492Z,48.10
2018-07-14T18:10:53.131Z,48.10
2018-07-14T18:13:21.004Z,48.40
2018-07-14T18:15:48.540Z,48.00
2018-07-14T18:18:16.044Z,48.10
2018-07-14T18:20:43.601Z,48.00
2018-07-14T18:23:11.099Z,48.00
2018-07-14T18:28:05.883Z,48.00
2018-07-14T18:30:33.412Z,48.10
2018-07-14T18:33:00.900Z,48.00
2018-07-14T18:35:28.454Z,48.00
2018-07-14T18:37:56.040Z,48.10
2018-07-14T18:40:23.573Z,48.10
2018-07-14T18:42:51.090Z,48.10
2018-07-14T18:45:18.616Z,48.10
2018-07-14T18:47:46.124Z,48.20
2018-07-14T18:50:13.640Z,48.10
2018-07-14T18:52:41.233Z,48.10
2018-07-14T18:55:08.735Z,48.10
2018-07-14T18:57:36.414Z,48.10
2018-07-14T19:00:03.920Z,48.00
2018-07-14T19:02:31.690Z,48.10
2018-07-14T19:04:59.640Z,48.00
2018-07-14T19:07:27.242Z,48.20
2018-07-14T19:09:54.775Z,48.40
2018-07-14T19:12:22.474Z,48.40
2018-07-14T19:14:50.066Z,48.30
2018-07-14T19:17:17.573Z,48.30
2018-07-14T19:19:45.450Z,48.10
2018-07-14T19:22:12.992Z,48.10
2018-07-14T19:24:40.496Z,48.10
2018-07-14T19:27:08.136Z,48.00
2018-07-14T19:29:35.649Z,48.00
2018-07-14T19:32:03.317Z,48.00
2018-07-14T19:36:58.195Z,47.90
2018-07-14T19:39:25.725Z,48.00
2018-07-14T19:41:53.350Z,48.00
2018-07-14T19:44:21.038Z,48.10
2018-07-14T19:46:48.659Z,48.10
2018-07-14T19:49:16.235Z,48.10
2018-07-14T19:51:43.771Z,48.10
2018-07-14T19:54:11.288Z,48.10
2018-07-14T19:56:38.970Z,48.00
2018-07-14T19:59:06.605Z,47.90
2018-07-14T20:01:34.249Z,47.90
2018-07-14T20:04:01.761Z,48.00
2018-07-14T20:06:29.478Z,47.90
2018-07-14T20:08:57.062Z,47.90
2018-07-14T20:11:25.550Z,48.00
2018-07-14T20:13:53.220Z,48.00
2018-07-14T20:16:20.812Z,47.90
2018-07-14T20:18:48.550Z,47.90
2018-07-14T20:21:16.107Z,47.90
2018-07-14T20:23:43.629Z,47.90
2018-07-14T20:26:11.505Z,47.90
2018-07-14T20:28:39.053Z,48.00
2018-07-14T20:31:06.629Z,48.00
2018-07-14T20:33:34.125Z,47.90
2018-07-14T20:36:02.091Z,47.90
2018-07-14T20:38:29.609Z,47.90
2018-07-14T20:40:57.121Z,47.90
2018-07-14T20:43:24.730Z,47.80
2018-07-14T20:45:52.377Z,47.90
2018-07-14T20:50:47.228Z,47.90
2018-07-14T20:53:14.831Z,48.10
2018-07-14T20:55:42.929Z,47.90
2018-07-14T20:58:10.485Z,47.90
2018-07-14T21:00:38.004Z,47.90
2018-07-14T21:03:05.585Z,47.80
2018-07-14T21:05:33.136Z,47.90
2018-07-14T21:08:00.643Z,47.90
2018-07-14T21:10:28.158Z,47.90
2018-07-14T21:12:55.685Z,47.90
2018-07-14T21:15:23.268Z,47.90
2018-07-14T21:17:50.780Z,47.90
2018-07-14T21:20:18.277Z,47.80
2018-07-14T21:22:45.830Z,47.90
2018-07-14T21:25:13.472Z,47.80
2018-07-14T21:27:41.004Z,47.80
2018-07-14T21:30:09.364Z,47.70
2018-07-14T21:32:36.973Z,47.70
2018-07-14T21:35:04.472Z,47.70
2018-07-14T21:37:32.022Z,47.70
2018-07-14T21:39:59.573Z,47.70
2018-07-14T21:42:27.129Z,48.10
2018-07-14T21:44:54.733Z,48.30
2018-07-14T21:47:22.323Z,47.70
2018-07-14T21:49:49.857Z,47.70
2018-07-14T21:52:17.354Z,47.70
2018-07-14T21:54:44.963Z,47.70
2018-07-14T21:57:12.607Z,47.70
2018-07-14T21:59:40.211Z,47.70
2018-07-14T22:02:07.796Z,47.70
2018-07-14T22:04:35.983Z,47.70
2018-07-14T22:07:03.550Z,47.70
2018-07-14T22:09:31.256Z,47.60
2018-07-14T22:11:58.814Z,47.60
2018-07-14T22:14:26.526Z,47.60
2018-07-14T22:16:54.077Z,47.50
2018-07-14T22:19:21.594Z,47.50
2018-07-14T22:21:49.157Z,47.40
2018-07-14T22:24:16.713Z,47.50
2018-07-14T22:26:44.278Z,47.10
2018-07-14T22:29:11.871Z,46.90
2018-07-14T22:31:39.584Z,46.70
2018-07-14T22:34:07.183Z,47.00
2018-07-14T22:36:34.730Z,47.10
2018-07-14T22:39:02.301Z,47.00
2018-07-14T22:41:29.909Z,46.90
2018-07-14T22:43:57.502Z,46.60
2018-07-14T22:46:25.072Z,47.00
2018-07-14T22:48:52.746Z,46.90
2018-07-14T22:51:20.300Z,46.70
2018-07-14T22:53:47.920Z,46.80
2018-07-14T22:56:15.446Z,46.80
2018-07-14T22:58:43.047Z,46.90
2018-07-14T23:01:10.594Z,47.00
2018-07-14T23:03:38.269Z,47.00
2018-07-14T23:06:06.014Z,47.00
2018-07-14T23:08:33.603Z,46.70
2018-07-14T23:11:01.222Z,46.70
2018-07-14T23:13:28.871Z,46.80
2018-07-14T23:15:56.404Z,46.90
2018-07-14T23:18:24.119Z,47.40
2018-07-14T23:20:51.711Z,46.90
2018-07-14T23:23:19.243Z,46.90
2018-07-14T23:25:46.959Z,47.00
2018-07-14T23:28:14.505Z,47.10
2018-07-14T23:30:42.047Z,47.10
2018-07-14T23:33:09.624Z,47.10
2018-07-14T23:35:37.209Z,47.10
2018-07-14T23:38:04.769Z,47.10
2018-07-14T23:40:32.285Z,47.10
2018-07-14T23:42:59.941Z,47.10
2018-07-14T23:45:27.456Z,47.20
2018-07-14T23:47:54.978Z,47.10
2018-07-14T23:50:22.525Z,47.10
2018-07-14T23:52:50.139Z,48.00
2018-07-14T23:55:17.709Z,47.20
2018-07-14T23:57:45.279Z,47.40
